sensor_id;sensor_type;location;lat;lon;timestamp;P1;durP1;ratioP1;P2;durP2;ratioP2
75005;SDS011;63553;51.814;4.600;2022-12-18T00:01:27;32.30;;;13.05;;
75005;SDS011;63553;51.814;4.600;2022-12-18T00:03:59;32.00;;;12.40;;
75005;SDS011;63553;51.814;4.600;2022-12-18T00:06:26;31.70;;;13.38;;
75005;SDS011;63553;51.814;4.600;2022-12-18T00:08:53;31.27;;;13.20;;
75005;SDS011;63553;51.814;4.600;2022-12-18T00:11:20;29.48;;;12.18;;
75005;SDS011;63553;51.814;4.600;2022-12-18T00:13:47;29.52;;;12.27;;
75005;SDS011;63553;51.814;4.600;2022-12-18T00:16:15;30.75;;;12.82;;
75005;SDS011;63553;51.814;4.600;2022-12-18T00:18:45;30.80;;;12.35;;
75005;SDS011;63553;51.814;4.600;2022-12-18T00:21:11;33.85;;;12.70;;
75005;SDS011;63553;51.814;4.600;2022-12-18T00:23:37;30.00;;;13.27;;
75005;SDS011;63553;51.814;4.600;2022-12-18T00:26:07;30.60;;;12.95;;
75005;SDS011;63553;51.814;4.600;2022-12-18T00:28:35;33.45;;;13.00;;
75005;SDS011;63553;51.814;4.600;2022-12-18T00:31:02;33.40;;;13.68;;
75005;SDS011;63553;51.814;4.600;2022-12-18T00:33:28;29.25;;;12.52;;
75005;SDS011;63553;51.814;4.600;2022-12-18T00:35:53;28.35;;;12.10;;
75005;SDS011;63553;51.814;4.600;2022-12-18T00:38:19;32.53;;;12.73;;
75005;SDS011;63553;51.814;4.600;2022-12-18T00:40:44;34.70;;;13.23;;
75005;SDS011;63553;51.814;4.600;2022-12-18T00:43:09;32.83;;;12.40;;
75005;SDS011;63553;51.814;4.600;2022-12-18T00:45:35;29.63;;;13.23;;
75005;SDS011;63553;51.814;4.600;2022-12-18T00:48:00;28.43;;;11.83;;
75005;SDS011;63553;51.814;4.600;2022-12-18T00:50:26;34.00;;;13.73;;
75005;SDS011;63553;51.814;4.600;2022-12-18T00:52:52;27.67;;;12.75;;
75005;SDS011;63553;51.814;4.600;2022-12-18T00:55:17;28.37;;;11.53;;
75005;SDS011;63553;51.814;4.600;2022-12-18T00:57:43;32.03;;;12.30;;
75005;SDS011;63553;51.814;4.600;2022-12-18T01:00:10;25.67;;;11.65;;
75005;SDS011;63553;51.814;4.600;2022-12-18T01:02:37;28.08;;;11.68;;
75005;SDS011;63553;51.814;4.600;2022-12-18T01:05:03;30.33;;;10.60;;
75005;SDS011;63553;51.814;4.600;2022-12-18T01:07:29;30.08;;;12.43;;
75005;SDS011;63553;51.814;4.600;2022-12-18T01:09:54;27.47;;;11.23;;
75005;SDS011;63553;51.814;4.600;2022-12-18T01:12:20;25.93;;;10.50;;
75005;SDS011;63553;51.814;4.600;2022-12-18T01:14:45;28.40;;;11.87;;
75005;SDS011;63553;51.814;4.600;2022-12-18T01:17:10;24.75;;;10.63;;
75005;SDS011;63553;51.814;4.600;2022-12-18T01:19:36;25.27;;;10.93;;
75005;SDS011;63553;51.814;4.600;2022-12-18T01:22:01;24.80;;;10.60;;
75005;SDS011;63553;51.814;4.600;2022-12-18T01:24:26;25.37;;;10.53;;
75005;SDS011;63553;51.814;4.600;2022-12-18T01:26:52;22.80;;;10.40;;
75005;SDS011;63553;51.814;4.600;2022-12-18T01:29:17;17.65;;;8.57;;
75005;SDS011;63553;51.814;4.600;2022-12-18T01:31:42;22.20;;;8.43;;
75005;SDS011;63553;51.814;4.600;2022-12-18T01:34:08;21.17;;;9.20;;
75005;SDS011;63553;51.814;4.600;2022-12-18T01:36:35;19.33;;;9.80;;
75005;SDS011;63553;51.814;4.600;2022-12-18T01:39:09;21.85;;;10.25;;
75005;SDS011;63553;51.814;4.600;2022-12-18T01:41:36;19.08;;;9.15;;
75005;SDS011;63553;51.814;4.600;2022-12-18T01:47:26;22.80;;;9.50;;
75005;SDS011;63553;51.814;4.600;2022-12-18T01:49:52;22.02;;;10.60;;
75005;SDS011;63553;51.814;4.600;2022-12-18T01:52:19;25.15;;;10.82;;
75005;SDS011;63553;51.814;4.600;2022-12-18T01:54:45;22.88;;;10.52;;
75005;SDS011;63553;51.814;4.600;2022-12-18T01:57:12;24.17;;;10.23;;
75005;SDS011;63553;51.814;4.600;2022-12-18T01:59:38;22.02;;;9.68;;
75005;SDS011;63553;51.814;4.600;2022-12-18T02:02:06;18.40;;;9.57;;
75005;SDS011;63553;51.814;4.600;2022-12-18T02:04:33;23.20;;;10.15;;
75005;SDS011;63553;51.814;4.600;2022-12-18T02:09:30;22.45;;;10.05;;
75005;SDS011;63553;51.814;4.600;2022-12-18T02:12:34;20.42;;;9.30;;
75005;SDS011;63553;51.814;4.600;2022-12-18T02:28:09;19.15;;;9.77;;
75005;SDS011;63553;51.814;4.600;2022-12-18T02:30:38;21.60;;;9.75;;
75005;SDS011;63553;51.814;4.600;2022-12-18T02:33:06;24.45;;;9.65;;
75005;SDS011;63553;51.814;4.600;2022-12-18T02:35:34;24.00;;;10.80;;
75005;SDS011;63553;51.814;4.600;2022-12-18T02:38:03;23.00;;;10.00;;
75005;SDS011;63553;51.814;4.600;2022-12-18T02:40:29;22.77;;;10.60;;
75005;SDS011;63553;51.814;4.600;2022-12-18T02:42:55;24.95;;;10.35;;
75005;SDS011;63553;51.814;4.600;2022-12-18T02:45:28;24.33;;;10.60;;
75005;SDS011;63553;51.814;4.600;2022-12-18T02:47:53;22.90;;;10.63;;
75005;SDS011;63553;51.814;4.600;2022-12-18T02:56:18;23.23;;;10.65;;
75005;SDS011;63553;51.814;4.600;2022-12-18T02:58:58;22.92;;;10.20;;
75005;SDS011;63553;51.814;4.600;2022-12-18T03:04:39;27.52;;;10.68;;
75005;SDS011;63553;51.814;4.600;2022-12-18T03:07:15;21.52;;;10.00;;
75005;SDS011;63553;51.814;4.600;2022-12-18T03:09:46;22.30;;;11.10;;
75005;SDS011;63553;51.814;4.600;2022-12-18T03:14:56;25.35;;;10.32;;
75005;SDS011;63553;51.814;4.600;2022-12-18T03:17:33;28.10;;;10.38;;
75005;SDS011;63553;51.814;4.600;2022-12-18T03:20:04;24.75;;;10.60;;
75005;SDS011;63553;51.814;4.600;2022-12-18T03:22:35;22.33;;;9.65;;
75005;SDS011;63553;51.814;4.600;2022-12-18T03:25:04;25.70;;;10.90;;
75005;SDS011;63553;51.814;4.600;2022-12-18T03:27:32;33.30;;;12.05;;
75005;SDS011;63553;51.814;4.600;2022-12-18T03:30:04;26.30;;;11.85;;
75005;SDS011;63553;51.814;4.600;2022-12-18T03:32:36;26.48;;;10.63;;
75005;SDS011;63553;51.814;4.600;2022-12-18T03:35:07;26.90;;;11.15;;
75005;SDS011;63553;51.814;4.600;2022-12-18T03:37:35;22.52;;;10.23;;
75005;SDS011;63553;51.814;4.600;2022-12-18T03:40:01;25.10;;;11.30;;
75005;SDS011;63553;51.814;4.600;2022-12-18T03:42:39;23.90;;;11.10;;
75005;SDS011;63553;51.814;4.600;2022-12-18T03:45:22;22.85;;;9.95;;
75005;SDS011;63553;51.814;4.600;2022-12-18T03:53:10;23.70;;;9.98;;
75005;SDS011;63553;51.814;4.600;2022-12-18T03:55:37;21.52;;;9.70;;
75005;SDS011;63553;51.814;4.600;2022-12-18T03:58:03;24.58;;;10.98;;
75005;SDS011;63553;51.814;4.600;2022-12-18T04:00:32;24.63;;;10.88;;
75005;SDS011;63553;51.814;4.600;2022-12-18T04:02:59;21.98;;;9.88;;
75005;SDS011;63553;51.814;4.600;2022-12-18T04:05:26;24.65;;;10.25;;
75005;SDS011;63553;51.814;4.600;2022-12-18T04:07:54;26.75;;;10.73;;
75005;SDS011;63553;51.814;4.600;2022-12-18T04:10:21;22.25;;;10.25;;
75005;SDS011;63553;51.814;4.600;2022-12-18T04:12:47;19.77;;;9.57;;
75005;SDS011;63553;51.814;4.600;2022-12-18T04:15:13;25.67;;;10.73;;
75005;SDS011;63553;51.814;4.600;2022-12-18T04:17:39;21.70;;;9.63;;
75005;SDS011;63553;51.814;4.600;2022-12-18T04:20:12;21.13;;;8.93;;
75005;SDS011;63553;51.814;4.600;2022-12-18T04:22:37;20.30;;;9.63;;
75005;SDS011;63553;51.814;4.600;2022-12-18T04:25:02;19.57;;;9.17;;
75005;SDS011;63553;51.814;4.600;2022-12-18T04:27:28;22.15;;;10.02;;
75005;SDS011;63553;51.814;4.600;2022-12-18T04:29:54;20.48;;;9.98;;
75005;SDS011;63553;51.814;4.600;2022-12-18T04:32:19;18.53;;;9.13;;
75005;SDS011;63553;51.814;4.600;2022-12-18T04:34:44;18.00;;;8.75;;
75005;SDS011;63553;51.814;4.600;2022-12-18T04:37:10;16.07;;;8.60;;
75005;SDS011;63553;51.814;4.600;2022-12-18T04:39:36;21.33;;;9.27;;
75005;SDS011;63553;51.814;4.600;2022-12-18T04:42:01;21.93;;;9.07;;
75005;SDS011;63553;51.814;4.600;2022-12-18T04:44:26;17.63;;;8.20;;
75005;SDS011;63553;51.814;4.600;2022-12-18T04:46:52;18.73;;;9.17;;
75005;SDS011;63553;51.814;4.600;2022-12-18T04:49:17;18.50;;;8.80;;
75005;SDS011;63553;51.814;4.600;2022-12-18T04:51:42;19.60;;;9.27;;
75005;SDS011;63553;51.814;4.600;2022-12-18T04:54:08;18.37;;;7.77;;
75005;SDS011;63553;51.814;4.600;2022-12-18T04:56:33;19.43;;;8.83;;
75005;SDS011;63553;51.814;4.600;2022-12-18T04:58:59;16.63;;;7.88;;
75005;SDS011;63553;51.814;4.600;2022-12-18T05:01:24;15.43;;;7.53;;
75005;SDS011;63553;51.814;4.600;2022-12-18T05:03:50;19.27;;;7.70;;
75005;SDS011;63553;51.814;4.600;2022-12-18T05:06:16;16.15;;;7.68;;
75005;SDS011;63553;51.814;4.600;2022-12-18T05:08:42;16.05;;;7.10;;
75005;SDS011;63553;51.814;4.600;2022-12-18T05:11:08;13.83;;;7.13;;
75005;SDS011;63553;51.814;4.600;2022-12-18T05:13:36;14.75;;;7.20;;
75005;SDS011;63553;51.814;4.600;2022-12-18T05:16:02;16.20;;;7.40;;
75005;SDS011;63553;51.814;4.600;2022-12-18T05:18:28;16.88;;;7.93;;
75005;SDS011;63553;51.814;4.600;2022-12-18T05:20:54;13.45;;;6.70;;
75005;SDS011;63553;51.814;4.600;2022-12-18T05:23:20;19.67;;;7.25;;
75005;SDS011;63553;51.814;4.600;2022-12-18T05:25:53;11.57;;;6.47;;
75005;SDS011;63553;51.814;4.600;2022-12-18T05:28:20;13.80;;;6.13;;
75005;SDS011;63553;51.814;4.600;2022-12-18T05:30:50;16.42;;;7.72;;
75005;SDS011;63553;51.814;4.600;2022-12-18T05:33:17;15.38;;;6.75;;
75005;SDS011;63553;51.814;4.600;2022-12-18T05:35:42;15.38;;;7.20;;
75005;SDS011;63553;51.814;4.600;2022-12-18T05:38:08;15.80;;;6.63;;
75005;SDS011;63553;51.814;4.600;2022-12-18T05:40:34;12.93;;;7.43;;
75005;SDS011;63553;51.814;4.600;2022-12-18T05:42:59;14.73;;;7.13;;
75005;SDS011;63553;51.814;4.600;2022-12-18T05:45:24;14.50;;;7.43;;
75005;SDS011;63553;51.814;4.600;2022-12-18T05:47:50;14.17;;;7.57;;
75005;SDS011;63553;51.814;4.600;2022-12-18T05:50:15;14.98;;;7.38;;
75005;SDS011;63553;51.814;4.600;2022-12-18T05:52:40;16.05;;;7.85;;
75005;SDS011;63553;51.814;4.600;2022-12-18T05:55:06;13.57;;;7.40;;
75005;SDS011;63553;51.814;4.600;2022-12-18T05:57:31;17.27;;;8.25;;
75005;SDS011;63553;51.814;4.600;2022-12-18T05:59:57;15.68;;;7.85;;
75005;SDS011;63553;51.814;4.600;2022-12-18T06:02:22;15.70;;;7.33;;
75005;SDS011;63553;51.814;4.600;2022-12-18T06:04:48;13.77;;;7.37;;
75005;SDS011;63553;51.814;4.600;2022-12-18T06:07:13;13.43;;;7.32;;
75005;SDS011;63553;51.814;4.600;2022-12-18T06:09:39;13.77;;;6.73;;
75005;SDS011;63553;51.814;4.600;2022-12-18T06:12:04;13.53;;;7.63;;
75005;SDS011;63553;51.814;4.600;2022-12-18T06:14:30;15.25;;;7.55;;
75005;SDS011;63553;51.814;4.600;2022-12-18T06:16:55;18.83;;;8.18;;
75005;SDS011;63553;51.814;4.600;2022-12-18T06:19:20;366.70;;;39.45;;
75005;SDS011;63553;51.814;4.600;2022-12-18T06:21:46;274.45;;;31.17;;
75005;SDS011;63553;51.814;4.600;2022-12-18T06:24:11;742.00;;;81.17;;
75005;SDS011;63553;51.814;4.600;2022-12-18T06:26:38;1366.37;;;139.60;;
75005;SDS011;63553;51.814;4.600;2022-12-18T06:29:03;475.45;;;47.45;;
75005;SDS011;63553;51.814;4.600;2022-12-18T06:31:29;641.50;;;67.78;;
75005;SDS011;63553;51.814;4.600;2022-12-18T06:33:54;55.47;;;14.43;;
75005;SDS011;63553;51.814;4.600;2022-12-18T06:36:20;28.00;;;11.50;;
75005;SDS011;63553;51.814;4.600;2022-12-18T06:38:46;30.33;;;12.05;;
75005;SDS011;63553;51.814;4.600;2022-12-18T06:41:15;21.27;;;9.40;;
75005;SDS011;63553;51.814;4.600;2022-12-18T06:46:09;25.40;;;9.63;;
75005;SDS011;63553;51.814;4.600;2022-12-18T06:48:35;25.63;;;10.70;;
75005;SDS011;63553;51.814;4.600;2022-12-18T06:51:00;30.87;;;10.57;;
75005;SDS011;63553;51.814;4.600;2022-12-18T06:53:26;22.48;;;9.80;;
75005;SDS011;63553;51.814;4.600;2022-12-18T06:55:52;29.25;;;11.05;;
75005;SDS011;63553;51.814;4.600;2022-12-18T06:58:17;20.33;;;9.15;;
75005;SDS011;63553;51.814;4.600;2022-12-18T07:00:43;24.70;;;9.80;;
75005;SDS011;63553;51.814;4.600;2022-12-18T07:03:09;31.27;;;11.13;;
75005;SDS011;63553;51.814;4.600;2022-12-18T07:05:39;26.88;;;10.10;;
75005;SDS011;63553;51.814;4.600;2022-12-18T07:08:05;23.65;;;10.40;;
75005;SDS011;63553;51.814;4.600;2022-12-18T07:10:31;24.73;;;9.75;;
75005;SDS011;63553;51.814;4.600;2022-12-18T07:12:56;25.88;;;10.70;;
75005;SDS011;63553;51.814;4.600;2022-12-18T07:15:22;22.97;;;9.67;;
75005;SDS011;63553;51.814;4.600;2022-12-18T07:17:47;29.37;;;11.27;;
75005;SDS011;63553;51.814;4.600;2022-12-18T07:20:12;19.60;;;9.57;;
75005;SDS011;63553;51.814;4.600;2022-12-18T07:22:37;25.33;;;10.13;;
75005;SDS011;63553;51.814;4.600;2022-12-18T07:25:03;26.40;;;10.57;;
75005;SDS011;63553;51.814;4.600;2022-12-18T07:27:29;29.60;;;9.82;;
75005;SDS011;63553;51.814;4.600;2022-12-18T07:29:54;24.93;;;9.77;;
75005;SDS011;63553;51.814;4.600;2022-12-18T07:32:19;23.10;;;9.93;;
75005;SDS011;63553;51.814;4.600;2022-12-18T07:34:45;17.80;;;8.37;;
75005;SDS011;63553;51.814;4.600;2022-12-18T07:37:10;23.30;;;9.47;;
75005;SDS011;63553;51.814;4.600;2022-12-18T07:39:35;21.80;;;9.07;;
75005;SDS011;63553;51.814;4.600;2022-12-18T07:42:01;22.23;;;8.93;;
75005;SDS011;63553;51.814;4.600;2022-12-18T07:44:45;19.52;;;8.75;;
75005;SDS011;63553;51.814;4.600;2022-12-18T07:47:11;19.05;;;7.53;;
75005;SDS011;63553;51.814;4.600;2022-12-18T07:49:36;21.40;;;8.93;;
75005;SDS011;63553;51.814;4.600;2022-12-18T07:52:01;21.93;;;8.83;;
75005;SDS011;63553;51.814;4.600;2022-12-18T07:54:27;20.67;;;8.77;;
75005;SDS011;63553;51.814;4.600;2022-12-18T07:56:52;18.90;;;8.43;;
75005;SDS011;63553;51.814;4.600;2022-12-18T07:59:18;18.25;;;7.70;;
75005;SDS011;63553;51.814;4.600;2022-12-18T08:01:43;22.02;;;8.70;;
75005;SDS011;63553;51.814;4.600;2022-12-18T08:04:09;19.15;;;8.77;;
75005;SDS011;63553;51.814;4.600;2022-12-18T08:06:34;19.05;;;8.07;;
75005;SDS011;63553;51.814;4.600;2022-12-18T08:09:00;20.00;;;8.23;;
75005;SDS011;63553;51.814;4.600;2022-12-18T08:11:26;20.58;;;8.57;;
75005;SDS011;63553;51.814;4.600;2022-12-18T08:13:53;18.13;;;7.63;;
75005;SDS011;63553;51.814;4.600;2022-12-18T08:16:20;20.95;;;8.63;;
75005;SDS011;63553;51.814;4.600;2022-12-18T08:18:46;22.23;;;8.73;;
75005;SDS011;63553;51.814;4.600;2022-12-18T08:23:46;18.23;;;8.27;;
75005;SDS011;63553;51.814;4.600;2022-12-18T08:26:11;18.67;;;7.85;;
75005;SDS011;63553;51.814;4.600;2022-12-18T08:28:37;16.95;;;8.27;;
75005;SDS011;63553;51.814;4.600;2022-12-18T08:31:02;14.35;;;8.07;;
75005;SDS011;63553;51.814;4.600;2022-12-18T08:33:28;18.27;;;8.93;;
75005;SDS011;63553;51.814;4.600;2022-12-18T08:35:54;20.73;;;8.37;;
75005;SDS011;63553;51.814;4.600;2022-12-18T08:38:19;18.40;;;8.27;;
75005;SDS011;63553;51.814;4.600;2022-12-18T08:40:44;21.73;;;8.27;;
75005;SDS011;63553;51.814;4.600;2022-12-18T08:43:10;21.30;;;8.70;;
75005;SDS011;63553;51.814;4.600;2022-12-18T08:45:54;16.45;;;8.05;;
75005;SDS011;63553;51.814;4.600;2022-12-18T08:48:20;18.70;;;8.75;;
75005;SDS011;63553;51.814;4.600;2022-12-18T08:50:55;21.40;;;9.10;;
75005;SDS011;63553;51.814;4.600;2022-12-18T08:53:21;18.52;;;8.15;;
75005;SDS011;63553;51.814;4.600;2022-12-18T08:55:50;17.13;;;8.00;;
75005;SDS011;63553;51.814;4.600;2022-12-18T08:58:15;19.53;;;8.50;;
75005;SDS011;63553;51.814;4.600;2022-12-18T09:00:40;18.67;;;8.30;;
75005;SDS011;63553;51.814;4.600;2022-12-18T09:03:10;16.93;;;8.40;;
75005;SDS011;63553;51.814;4.600;2022-12-18T09:08:02;15.47;;;7.73;;
75005;SDS011;63553;51.814;4.600;2022-12-18T09:10:28;17.07;;;7.97;;
75005;SDS011;63553;51.814;4.600;2022-12-18T09:12:53;13.10;;;7.20;;
75005;SDS011;63553;51.814;4.600;2022-12-18T09:15:18;17.80;;;7.93;;
75005;SDS011;63553;51.814;4.600;2022-12-18T09:17:43;15.90;;;7.87;;
75005;SDS011;63553;51.814;4.600;2022-12-18T09:20:09;14.17;;;7.77;;
75005;SDS011;63553;51.814;4.600;2022-12-18T09:22:35;16.92;;;7.78;;
75005;SDS011;63553;51.814;4.600;2022-12-18T09:25:00;17.23;;;7.60;;
75005;SDS011;63553;51.814;4.600;2022-12-18T09:27:25;18.97;;;8.23;;
75005;SDS011;63553;51.814;4.600;2022-12-18T09:29:50;20.33;;;8.10;;
75005;SDS011;63553;51.814;4.600;2022-12-18T09:32:16;17.60;;;7.30;;
75005;SDS011;63553;51.814;4.600;2022-12-18T09:34:41;18.10;;;7.90;;
75005;SDS011;63553;51.814;4.600;2022-12-18T09:37:06;17.13;;;8.00;;
75005;SDS011;63553;51.814;4.600;2022-12-18T09:39:32;16.43;;;7.83;;
75005;SDS011;63553;51.814;4.600;2022-12-18T09:42:01;17.98;;;8.05;;
75005;SDS011;63553;51.814;4.600;2022-12-18T09:49:46;17.75;;;7.72;;
75005;SDS011;63553;51.814;4.600;2022-12-18T09:58:24;16.13;;;7.72;;
75005;SDS011;63553;51.814;4.600;2022-12-18T10:00:55;18.35;;;8.20;;
75005;SDS011;63553;51.814;4.600;2022-12-18T10:03:21;16.65;;;7.63;;
75005;SDS011;63553;51.814;4.600;2022-12-18T10:06:07;19.17;;;7.55;;
75005;SDS011;63553;51.814;4.600;2022-12-18T10:08:59;16.30;;;7.45;;
75005;SDS011;63553;51.814;4.600;2022-12-18T10:22:41;16.95;;;8.07;;
75005;SDS011;63553;51.814;4.600;2022-12-18T10:27:53;18.90;;;8.27;;
75005;SDS011;63553;51.814;4.600;2022-12-18T10:30:23;14.55;;;7.75;;
75005;SDS011;63553;51.814;4.600;2022-12-18T10:32:49;19.85;;;8.93;;
75005;SDS011;63553;51.814;4.600;2022-12-18T10:35:17;24.33;;;9.88;;
75005;SDS011;63553;51.814;4.600;2022-12-18T10:40:28;18.35;;;8.15;;
75005;SDS011;63553;51.814;4.600;2022-12-18T10:43:03;13.82;;;7.90;;
75005;SDS011;63553;51.814;4.600;2022-12-18T10:45:38;15.90;;;7.70;;
75005;SDS011;63553;51.814;4.600;2022-12-18T10:48:04;14.88;;;7.53;;
75005;SDS011;63553;51.814;4.600;2022-12-18T10:50:34;13.27;;;7.38;;
75005;SDS011;63553;51.814;4.600;2022-12-18T10:53:02;12.40;;;6.80;;
75005;SDS011;63553;51.814;4.600;2022-12-18T10:55:33;11.45;;;6.70;;
75005;SDS011;63553;51.814;4.600;2022-12-18T11:01:01;12.32;;;7.15;;
75005;SDS011;63553;51.814;4.600;2022-12-18T11:06:19;13.87;;;7.43;;
75005;SDS011;63553;51.814;4.600;2022-12-18T11:11:24;13.75;;;7.60;;
75005;SDS011;63553;51.814;4.600;2022-12-18T11:14:04;13.48;;;7.53;;
75005;SDS011;63553;51.814;4.600;2022-12-18T11:16:36;9.90;;;6.10;;
75005;SDS011;63553;51.814;4.600;2022-12-18T11:21:56;13.70;;;7.40;;
75005;SDS011;63553;51.814;4.600;2022-12-18T11:24:33;13.25;;;7.07;;
75005;SDS011;63553;51.814;4.600;2022-12-18T11:34:39;11.45;;;6.85;;
75005;SDS011;63553;51.814;4.600;2022-12-18T11:37:08;11.93;;;6.43;;
75005;SDS011;63553;51.814;4.600;2022-12-18T11:39:37;12.75;;;7.60;;
75005;SDS011;63553;51.814;4.600;2022-12-18T11:42:12;12.63;;;7.80;;
75005;SDS011;63553;51.814;4.600;2022-12-18T11:44:49;12.73;;;6.85;;
75005;SDS011;63553;51.814;4.600;2022-12-18T11:47:24;10.43;;;6.63;;
75005;SDS011;63553;51.814;4.600;2022-12-18T11:50:00;9.23;;;6.38;;
75005;SDS011;63553;51.814;4.600;2022-12-18T11:52:28;10.43;;;6.40;;
75005;SDS011;63553;51.814;4.600;2022-12-18T11:55:10;11.93;;;7.00;;
75005;SDS011;63553;51.814;4.600;2022-12-18T12:30:16;14.60;;;7.15;;
75005;SDS011;63553;51.814;4.600;2022-12-18T12:40:39;14.02;;;7.38;;
75005;SDS011;63553;51.814;4.600;2022-12-18T12:43:19;11.23;;;7.28;;
75005;SDS011;63553;51.814;4.600;2022-12-18T12:46:07;13.00;;;7.18;;
75005;SDS011;63553;51.814;4.600;2022-12-18T12:51:22;10.32;;;6.53;;
75005;SDS011;63553;51.814;4.600;2022-12-18T12:53:49;13.35;;;7.00;;
75005;SDS011;63553;51.814;4.600;2022-12-18T12:56:15;11.77;;;6.85;;
75005;SDS011;63553;51.814;4.600;2022-12-18T12:59:03;13.43;;;7.55;;
75005;SDS011;63553;51.814;4.600;2022-12-18T13:04:27;12.73;;;6.82;;
75005;SDS011;63553;51.814;4.600;2022-12-18T13:09:30;12.13;;;7.00;;
75005;SDS011;63553;51.814;4.600;2022-12-18T13:12:03;10.98;;;7.03;;
75005;SDS011;63553;51.814;4.600;2022-12-18T13:14:52;10.52;;;6.43;;
75005;SDS011;63553;51.814;4.600;2022-12-18T13:20:19;11.90;;;7.10;;
75005;SDS011;63553;51.814;4.600;2022-12-18T13:22:45;12.60;;;7.38;;
75005;SDS011;63553;51.814;4.600;2022-12-18T13:25:32;10.82;;;6.80;;
75005;SDS011;63553;51.814;4.600;2022-12-18T13:30:41;10.93;;;6.93;;
75005;SDS011;63553;51.814;4.600;2022-12-18T13:38:20;10.57;;;6.93;;
75005;SDS011;63553;51.814;4.600;2022-12-18T13:43:19;10.37;;;6.43;;
75005;SDS011;63553;51.814;4.600;2022-12-18T13:45:49;13.18;;;7.28;;
75005;SDS011;63553;51.814;4.600;2022-12-18T13:48:24;11.48;;;6.78;;
75005;SDS011;63553;51.814;4.600;2022-12-18T13:50:53;12.82;;;6.47;;
75005;SDS011;63553;51.814;4.600;2022-12-18T13:56:21;14.25;;;7.15;;
75005;SDS011;63553;51.814;4.600;2022-12-18T14:01:48;10.98;;;6.93;;
75005;SDS011;63553;51.814;4.600;2022-12-18T14:04:25;11.35;;;7.15;;
75005;SDS011;63553;51.814;4.600;2022-12-18T14:07:00;11.18;;;6.18;;
75005;SDS011;63553;51.814;4.600;2022-12-18T14:09:30;11.15;;;6.53;;
75005;SDS011;63553;51.814;4.600;2022-12-18T14:11:59;11.88;;;6.18;;
75005;SDS011;63553;51.814;4.600;2022-12-18T14:14:45;11.90;;;6.78;;
75005;SDS011;63553;51.814;4.600;2022-12-18T14:17:13;12.93;;;7.03;;
75005;SDS011;63553;51.814;4.600;2022-12-18T14:19:46;12.57;;;7.50;;
75005;SDS011;63553;51.814;4.600;2022-12-18T14:22:16;13.10;;;7.45;;
75005;SDS011;63553;51.814;4.600;2022-12-18T14:24:43;12.30;;;6.55;;
75005;SDS011;63553;51.814;4.600;2022-12-18T14:27:23;11.15;;;7.35;;
75005;SDS011;63553;51.814;4.600;2022-12-18T14:29:50;12.60;;;6.75;;
75005;SDS011;63553;51.814;4.600;2022-12-18T14:32:17;10.98;;;6.97;;
75005;SDS011;63553;51.814;4.600;2022-12-18T14:34:44;11.82;;;6.93;;
75005;SDS011;63553;51.814;4.600;2022-12-18T14:37:21;11.75;;;7.05;;
75005;SDS011;63553;51.814;4.600;2022-12-18T14:39:58;11.48;;;6.78;;
75005;SDS011;63553;51.814;4.600;2022-12-18T14:42:25;14.82;;;7.43;;
75005;SDS011;63553;51.814;4.600;2022-12-18T14:45:18;12.85;;;7.07;;
75005;SDS011;63553;51.814;4.600;2022-12-18T14:47:56;11.75;;;7.22;;
75005;SDS011;63553;51.814;4.600;2022-12-18T14:50:24;13.05;;;6.97;;
75005;SDS011;63553;51.814;4.600;2022-12-18T14:52:49;11.07;;;6.53;;
75005;SDS011;63553;51.814;4.600;2022-12-18T14:55:19;12.93;;;7.13;;
75005;SDS011;63553;51.814;4.600;2022-12-18T14:57:45;13.98;;;7.30;;
75005;SDS011;63553;51.814;4.600;2022-12-18T15:00:21;10.30;;;6.57;;
75005;SDS011;63553;51.814;4.600;2022-12-18T15:02:53;11.90;;;6.78;;
75005;SDS011;63553;51.814;4.600;2022-12-18T15:05:27;11.13;;;6.47;;
75005;SDS011;63553;51.814;4.600;2022-12-18T15:07:54;12.32;;;6.85;;
75005;SDS011;63553;51.814;4.600;2022-12-18T15:10:25;11.85;;;7.07;;
75005;SDS011;63553;51.814;4.600;2022-12-18T15:20:23;12.32;;;6.80;;
75005;SDS011;63553;51.814;4.600;2022-12-18T15:22:48;11.85;;;7.65;;
75005;SDS011;63553;51.814;4.600;2022-12-18T15:25:28;14.48;;;7.40;;
75005;SDS011;63553;51.814;4.600;2022-12-18T15:28:03;11.10;;;6.72;;
75005;SDS011;63553;51.814;4.600;2022-12-18T15:30:28;12.88;;;6.85;;
75005;SDS011;63553;51.814;4.600;2022-12-18T15:33:16;13.18;;;6.97;;
75005;SDS011;63553;51.814;4.600;2022-12-18T15:35:55;13.23;;;7.13;;
75005;SDS011;63553;51.814;4.600;2022-12-18T15:38:25;11.50;;;6.95;;
75005;SDS011;63553;51.814;4.600;2022-12-18T15:40:52;15.27;;;8.23;;
75005;SDS011;63553;51.814;4.600;2022-12-18T15:43:19;13.05;;;7.38;;
75005;SDS011;63553;51.814;4.600;2022-12-18T15:46:21;14.73;;;7.70;;
75005;SDS011;63553;51.814;4.600;2022-12-18T15:48:47;13.20;;;7.13;;
75005;SDS011;63553;51.814;4.600;2022-12-18T15:51:15;13.10;;;6.95;;
75005;SDS011;63553;51.814;4.600;2022-12-18T15:53:42;10.32;;;6.75;;
75005;SDS011;63553;51.814;4.600;2022-12-18T15:56:10;11.77;;;6.95;;
75005;SDS011;63553;51.814;4.600;2022-12-18T15:58:55;12.88;;;7.05;;
75005;SDS011;63553;51.814;4.600;2022-12-18T16:01:20;12.70;;;7.07;;
75005;SDS011;63553;51.814;4.600;2022-12-18T16:03:49;14.77;;;7.90;;
75005;SDS011;63553;51.814;4.600;2022-12-18T16:06:14;12.93;;;7.50;;
75005;SDS011;63553;51.814;4.600;2022-12-18T16:08:39;10.85;;;7.13;;
75005;SDS011;63553;51.814;4.600;2022-12-18T16:11:05;11.93;;;6.83;;
75005;SDS011;63553;51.814;4.600;2022-12-18T16:13:30;11.32;;;6.85;;
75005;SDS011;63553;51.814;4.600;2022-12-18T16:15:56;11.32;;;7.55;;
75005;SDS011;63553;51.814;4.600;2022-12-18T16:18:21;15.00;;;8.10;;
75005;SDS011;63553;51.814;4.600;2022-12-18T16:20:47;12.00;;;7.17;;
75005;SDS011;63553;51.814;4.600;2022-12-18T16:23:12;13.52;;;7.22;;
75005;SDS011;63553;51.814;4.600;2022-12-18T16:25:37;12.83;;;7.40;;
75005;SDS011;63553;51.814;4.600;2022-12-18T16:28:03;12.00;;;7.72;;
75005;SDS011;63553;51.814;4.600;2022-12-18T16:30:29;14.93;;;7.93;;
75005;SDS011;63553;51.814;4.600;2022-12-18T16:32:59;13.65;;;7.22;;
75005;SDS011;63553;51.814;4.600;2022-12-18T16:35:25;13.85;;;8.32;;
75005;SDS011;63553;51.814;4.600;2022-12-18T16:37:51;15.25;;;7.97;;
75005;SDS011;63553;51.814;4.600;2022-12-18T16:40:17;14.50;;;7.55;;
75005;SDS011;63553;51.814;4.600;2022-12-18T16:42:44;13.98;;;7.82;;
75005;SDS011;63553;51.814;4.600;2022-12-18T16:45:12;13.82;;;7.78;;
75005;SDS011;63553;51.814;4.600;2022-12-18T16:47:39;17.73;;;8.48;;
75005;SDS011;63553;51.814;4.600;2022-12-18T16:50:05;14.32;;;7.80;;
75005;SDS011;63553;51.814;4.600;2022-12-18T16:52:31;13.93;;;7.80;;
75005;SDS011;63553;51.814;4.600;2022-12-18T16:54:57;14.52;;;7.57;;
75005;SDS011;63553;51.814;4.600;2022-12-18T16:57:22;14.65;;;7.57;;
75005;SDS011;63553;51.814;4.600;2022-12-18T16:59:47;13.15;;;7.57;;
75005;SDS011;63553;51.814;4.600;2022-12-18T17:02:15;13.48;;;7.88;;
75005;SDS011;63553;51.814;4.600;2022-12-18T17:04:42;14.48;;;7.85;;
75005;SDS011;63553;51.814;4.600;2022-12-18T17:07:08;13.18;;;7.82;;
75005;SDS011;63553;51.814;4.600;2022-12-18T17:09:34;13.95;;;8.20;;
75005;SDS011;63553;51.814;4.600;2022-12-18T17:12:00;13.63;;;7.70;;
75005;SDS011;63553;51.814;4.600;2022-12-18T17:14:25;17.53;;;8.77;;
75005;SDS011;63553;51.814;4.600;2022-12-18T17:16:51;13.88;;;8.35;;
75005;SDS011;63553;51.814;4.600;2022-12-18T17:19:17;14.77;;;8.13;;
75005;SDS011;63553;51.814;4.600;2022-12-18T17:21:44;14.77;;;8.15;;
75005;SDS011;63553;51.814;4.600;2022-12-18T17:24:13;14.93;;;9.00;;